sensor_id;sensor_type;location;lat;lon;timestamp;P1;durP1;ratioP1;P2;durP2;ratioP2
34481;SDS011;20720;48.886;9.388;2023-10-08T00:01:39;20.40;;;6.85;;
34481;SDS011;20720;48.886;9.388;2023-10-08T00:04:07;15.98;;;6.70;;
34481;SDS011;20720;48.886;9.388;2023-10-08T00:06:33;17.60;;;6.50;;
34481;SDS011;20720;48.886;9.388;2023-10-08T00:08:58;20.08;;;7.22;;
34481;SDS011;20720;48.886;9.388;2023-10-08T00:11:34;16.95;;;5.97;;
34481;SDS011;20720;48.886;9.388;2023-10-08T00:14:01;17.33;;;7.22;;
34481;SDS011;20720;48.886;9.388;2023-10-08T00:16:26;15.82;;;5.72;;
34481;SDS011;20720;48.886;9.388;2023-10-08T00:18:53;16.08;;;6.03;;
34481;SDS011;20720;48.886;9.388;2023-10-08T00:21:23;14.48;;;5.82;;
34481;SDS011;20720;48.886;9.388;2023-10-08T00:23:51;14.77;;;6.18;;
34481;SDS011;20720;48.886;9.388;2023-10-08T00:26:20;11.43;;;5.47;;
34481;SDS011;20720;48.886;9.388;2023-10-08T00:28:52;13.57;;;5.78;;
34481;SDS011;20720;48.886;9.388;2023-10-08T00:31:25;14.15;;;5.47;;
34481;SDS011;20720;48.886;9.388;2023-10-08T00:33:56;14.38;;;5.65;;
34481;SDS011;20720;48.886;9.388;2023-10-08T00:36:22;11.95;;;5.10;;
34481;SDS011;20720;48.886;9.388;2023-10-08T00:38:49;13.55;;;5.65;;
34481;SDS011;20720;48.886;9.388;2023-10-08T00:41:24;11.88;;;5.18;;
34481;SDS011;20720;48.886;9.388;2023-10-08T00:43:53;15.30;;;5.13;;
34481;SDS011;20720;48.886;9.388;2023-10-08T00:46:21;10.50;;;4.82;;
34481;SDS011;20720;48.886;9.388;2023-10-08T00:48:49;11.13;;;4.78;;
34481;SDS011;20720;48.886;9.388;2023-10-08T00:51:19;11.02;;;5.28;;
34481;SDS011;20720;48.886;9.388;2023-10-08T00:53:52;10.32;;;5.15;;
34481;SDS011;20720;48.886;9.388;2023-10-08T00:56:24;12.60;;;5.22;;
34481;SDS011;20720;48.886;9.388;2023-10-08T00:59:09;12.77;;;4.85;;
34481;SDS011;20720;48.886;9.388;2023-10-08T01:01:37;11.70;;;5.25;;
34481;SDS011;20720;48.886;9.388;2023-10-08T01:04:04;8.88;;;4.80;;
34481;SDS011;20720;48.886;9.388;2023-10-08T01:06:36;11.27;;;5.53;;
34481;SDS011;20720;48.886;9.388;2023-10-08T01:09:04;9.90;;;4.57;;
34481;SDS011;20720;48.886;9.388;2023-10-08T01:11:42;10.90;;;5.05;;
34481;SDS011;20720;48.886;9.388;2023-10-08T01:14:14;10.00;;;5.17;;
34481;SDS011;20720;48.886;9.388;2023-10-08T01:16:40;9.70;;;5.00;;
34481;SDS011;20720;48.886;9.388;2023-10-08T01:19:10;10.02;;;4.60;;
34481;SDS011;20720;48.886;9.388;2023-10-08T01:21:38;9.63;;;5.13;;
34481;SDS011;20720;48.886;9.388;2023-10-08T01:24:05;11.18;;;4.53;;
34481;SDS011;20720;48.886;9.388;2023-10-08T01:26:32;8.50;;;4.07;;
34481;SDS011;20720;48.886;9.388;2023-10-08T01:28:58;9.90;;;4.40;;
34481;SDS011;20720;48.886;9.388;2023-10-08T01:31:32;8.23;;;4.15;;
34481;SDS011;20720;48.886;9.388;2023-10-08T01:33:57;10.10;;;3.78;;
34481;SDS011;20720;48.886;9.388;2023-10-08T01:36:24;8.77;;;4.07;;
34481;SDS011;20720;48.886;9.388;2023-10-08T01:38:50;7.95;;;3.75;;
34481;SDS011;20720;48.886;9.388;2023-10-08T01:41:16;8.88;;;4.20;;
34481;SDS011;20720;48.886;9.388;2023-10-08T01:43:47;9.13;;;3.83;;
34481;SDS011;20720;48.886;9.388;2023-10-08T01:46:15;8.07;;;4.00;;
34481;SDS011;20720;48.886;9.388;2023-10-08T01:48:41;7.53;;;4.10;;
34481;SDS011;20720;48.886;9.388;2023-10-08T01:51:09;7.35;;;3.97;;
34481;SDS011;20720;48.886;9.388;2023-10-08T01:53:37;6.30;;;3.67;;
34481;SDS011;20720;48.886;9.388;2023-10-08T01:56:03;7.18;;;3.83;;
34481;SDS011;20720;48.886;9.388;2023-10-08T01:58:29;9.85;;;3.72;;
34481;SDS011;20720;48.886;9.388;2023-10-08T02:00:55;7.72;;;4.13;;
34481;SDS011;20720;48.886;9.388;2023-10-08T02:03:25;10.60;;;4.28;;
34481;SDS011;20720;48.886;9.388;2023-10-08T02:05:52;9.05;;;3.90;;
34481;SDS011;20720;48.886;9.388;2023-10-08T02:08:23;7.13;;;3.85;;
34481;SDS011;20720;48.886;9.388;2023-10-08T02:10:48;7.55;;;3.97;;
34481;SDS011;20720;48.886;9.388;2023-10-08T02:13:14;10.65;;;4.25;;
34481;SDS011;20720;48.886;9.388;2023-10-08T02:15:48;7.65;;;4.20;;
34481;SDS011;20720;48.886;9.388;2023-10-08T02:18:16;7.65;;;3.85;;
34481;SDS011;20720;48.886;9.388;2023-10-08T02:20:42;7.82;;;3.85;;
34481;SDS011;20720;48.886;9.388;2023-10-08T02:23:08;7.68;;;3.70;;
34481;SDS011;20720;48.886;9.388;2023-10-08T02:25:36;8.15;;;4.32;;
34481;SDS011;20720;48.886;9.388;2023-10-08T02:28:05;10.40;;;4.20;;
34481;SDS011;20720;48.886;9.388;2023-10-08T02:30:34;7.30;;;3.60;;
34481;SDS011;20720;48.886;9.388;2023-10-08T02:33:01;8.40;;;4.40;;
34481;SDS011;20720;48.886;9.388;2023-10-08T02:35:27;7.50;;;3.88;;
34481;SDS011;20720;48.886;9.388;2023-10-08T02:37:54;7.43;;;4.07;;
34481;SDS011;20720;48.886;9.388;2023-10-08T02:40:20;8.48;;;3.88;;
34481;SDS011;20720;48.886;9.388;2023-10-08T02:42:51;8.13;;;3.83;;
34481;SDS011;20720;48.886;9.388;2023-10-08T02:45:24;8.82;;;4.10;;
34481;SDS011;20720;48.886;9.388;2023-10-08T02:47:51;10.13;;;4.13;;
34481;SDS011;20720;48.886;9.388;2023-10-08T02:50:17;7.55;;;4.05;;
34481;SDS011;20720;48.886;9.388;2023-10-08T02:52:43;9.10;;;3.95;;
34481;SDS011;20720;48.886;9.388;2023-10-08T02:55:11;8.93;;;4.07;;
34481;SDS011;20720;48.886;9.388;2023-10-08T02:57:55;7.28;;;3.80;;
34481;SDS011;20720;48.886;9.388;2023-10-08T03:00:23;6.22;;;3.78;;
34481;SDS011;20720;48.886;9.388;2023-10-08T03:02:54;9.73;;;4.35;;
34481;SDS011;20720;48.886;9.388;2023-10-08T03:05:19;6.65;;;3.60;;
34481;SDS011;20720;48.886;9.388;2023-10-08T03:07:47;7.75;;;3.70;;
34481;SDS011;20720;48.886;9.388;2023-10-08T03:10:16;6.20;;;3.40;;
34481;SDS011;20720;48.886;9.388;2023-10-08T03:12:47;8.65;;;3.60;;
34481;SDS011;20720;48.886;9.388;2023-10-08T03:15:12;8.07;;;3.60;;
34481;SDS011;20720;48.886;9.388;2023-10-08T03:17:42;6.45;;;3.20;;
34481;SDS011;20720;48.886;9.388;2023-10-08T03:20:16;6.80;;;3.50;;
34481;SDS011;20720;48.886;9.388;2023-10-08T03:23:03;7.28;;;3.30;;
34481;SDS011;20720;48.886;9.388;2023-10-08T03:25:41;6.50;;;3.17;;
34481;SDS011;20720;48.886;9.388;2023-10-08T03:28:09;7.10;;;3.75;;
34481;SDS011;20720;48.886;9.388;2023-10-08T03:30:37;7.07;;;3.35;;
34481;SDS011;20720;48.886;9.388;2023-10-08T03:33:18;8.55;;;3.45;;
34481;SDS011;20720;48.886;9.388;2023-10-08T03:35:49;6.78;;;3.55;;
34481;SDS011;20720;48.886;9.388;2023-10-08T03:38:19;7.25;;;3.50;;
34481;SDS011;20720;48.886;9.388;2023-10-08T03:40:53;6.93;;;3.58;;
34481;SDS011;20720;48.886;9.388;2023-10-08T03:43:31;8.00;;;3.38;;
34481;SDS011;20720;48.886;9.388;2023-10-08T03:46:00;7.45;;;3.20;;
34481;SDS011;20720;48.886;9.388;2023-10-08T03:48:31;7.72;;;3.10;;
34481;SDS011;20720;48.886;9.388;2023-10-08T03:51:02;7.63;;;3.55;;
34481;SDS011;20720;48.886;9.388;2023-10-08T03:53:34;9.35;;;3.30;;
34481;SDS011;20720;48.886;9.388;2023-10-08T03:56:19;9.75;;;3.50;;
34481;SDS011;20720;48.886;9.388;2023-10-08T03:58:45;8.82;;;3.22;;
34481;SDS011;20720;48.886;9.388;2023-10-08T04:01:12;7.78;;;3.75;;
34481;SDS011;20720;48.886;9.388;2023-10-08T04:03:43;5.53;;;2.90;;
34481;SDS011;20720;48.886;9.388;2023-10-08T04:06:21;6.90;;;3.47;;
34481;SDS011;20720;48.886;9.388;2023-10-08T04:08:53;7.30;;;3.70;;
34481;SDS011;20720;48.886;9.388;2023-10-08T04:11:37;8.00;;;3.90;;
34481;SDS011;20720;48.886;9.388;2023-10-08T04:14:17;7.20;;;3.92;;
34481;SDS011;20720;48.886;9.388;2023-10-08T04:16:43;6.90;;;3.50;;
34481;SDS011;20720;48.886;9.388;2023-10-08T04:19:09;6.43;;;3.33;;
34481;SDS011;20720;48.886;9.388;2023-10-08T04:21:36;10.02;;;3.28;;
34481;SDS011;20720;48.886;9.388;2023-10-08T04:24:02;6.80;;;3.47;;
34481;SDS011;20720;48.886;9.388;2023-10-08T04:26:30;8.85;;;2.90;;
34481;SDS011;20720;48.886;9.388;2023-10-08T04:28:57;4.95;;;2.80;;
34481;SDS011;20720;48.886;9.388;2023-10-08T04:31:25;6.30;;;2.70;;
34481;SDS011;20720;48.886;9.388;2023-10-08T04:33:53;5.80;;;2.58;;
34481;SDS011;20720;48.886;9.388;2023-10-08T04:36:19;6.82;;;2.90;;
34481;SDS011;20720;48.886;9.388;2023-10-08T04:38:45;5.78;;;2.83;;
34481;SDS011;20720;48.886;9.388;2023-10-08T04:41:13;8.63;;;3.00;;
34481;SDS011;20720;48.886;9.388;2023-10-08T04:43:42;9.15;;;3.10;;
34481;SDS011;20720;48.886;9.388;2023-10-08T04:46:08;6.47;;;2.53;;
34481;SDS011;20720;48.886;9.388;2023-10-08T04:48:44;5.95;;;2.70;;
34481;SDS011;20720;48.886;9.388;2023-10-08T04:51:09;9.02;;;2.83;;
34481;SDS011;20720;48.886;9.388;2023-10-08T04:53:38;8.60;;;2.85;;
34481;SDS011;20720;48.886;9.388;2023-10-08T04:56:06;8.38;;;3.03;;
34481;SDS011;20720;48.886;9.388;2023-10-08T05:01:05;6.25;;;2.70;;
34481;SDS011;20720;48.886;9.388;2023-10-08T05:03:51;7.25;;;2.42;;
34481;SDS011;20720;48.886;9.388;2023-10-08T05:06:24;6.18;;;2.90;;
34481;SDS011;20720;48.886;9.388;2023-10-08T05:09:06;5.25;;;2.70;;
34481;SDS011;20720;48.886;9.388;2023-10-08T05:11:58;7.05;;;2.55;;
34481;SDS011;20720;48.886;9.388;2023-10-08T05:14:53;5.78;;;2.42;;
34481;SDS011;20720;48.886;9.388;2023-10-08T05:17:42;5.45;;;2.47;;
34481;SDS011;20720;48.886;9.388;2023-10-08T05:20:14;9.45;;;3.10;;
34481;SDS011;20720;48.886;9.388;2023-10-08T05:23:07;8.02;;;3.40;;
34481;SDS011;20720;48.886;9.388;2023-10-08T05:25:50;6.32;;;3.38;;
34481;SDS011;20720;48.886;9.388;2023-10-08T05:28:30;7.75;;;3.05;;
34481;SDS011;20720;48.886;9.388;2023-10-08T05:31:06;9.00;;;3.70;;
34481;SDS011;20720;48.886;9.388;2023-10-08T05:33:41;8.23;;;3.20;;
34481;SDS011;20720;48.886;9.388;2023-10-08T05:36:25;10.30;;;3.55;;
34481;SDS011;20720;48.886;9.388;2023-10-08T05:39:01;7.10;;;3.05;;
34481;SDS011;20720;48.886;9.388;2023-10-08T05:41:41;9.93;;;3.20;;
34481;SDS011;20720;48.886;9.388;2023-10-08T05:44:16;7.32;;;3.08;;
34481;SDS011;20720;48.886;9.388;2023-10-08T05:46:44;9.85;;;3.72;;
34481;SDS011;20720;48.886;9.388;2023-10-08T05:49:19;6.72;;;2.95;;
34481;SDS011;20720;48.886;9.388;2023-10-08T05:51:56;6.13;;;3.20;;
34481;SDS011;20720;48.886;9.388;2023-10-08T05:54:24;11.40;;;5.78;;
34481;SDS011;20720;48.886;9.388;2023-10-08T06:02:17;16.02;;;7.97;;
34481;SDS011;20720;48.886;9.388;2023-10-08T06:04:59;13.63;;;6.30;;
34481;SDS011;20720;48.886;9.388;2023-10-08T06:07:38;8.80;;;4.53;;
34481;SDS011;20720;48.886;9.388;2023-10-08T06:10:33;10.70;;;4.97;;
34481;SDS011;20720;48.886;9.388;2023-10-08T06:15:39;10.52;;;4.28;;
34481;SDS011;20720;48.886;9.388;2023-10-08T06:18:15;7.13;;;3.53;;
34481;SDS011;20720;48.886;9.388;2023-10-08T06:20:46;8.90;;;4.00;;
34481;SDS011;20720;48.886;9.388;2023-10-08T06:23:13;7.88;;;4.00;;
34481;SDS011;20720;48.886;9.388;2023-10-08T06:25:43;7.32;;;3.50;;
34481;SDS011;20720;48.886;9.388;2023-10-08T06:28:14;8.52;;;3.50;;
34481;SDS011;20720;48.886;9.388;2023-10-08T06:30:43;8.02;;;3.35;;
34481;SDS011;20720;48.886;9.388;2023-10-08T06:33:09;9.82;;;3.90;;
34481;SDS011;20720;48.886;9.388;2023-10-08T06:35:35;9.52;;;3.95;;
34481;SDS011;20720;48.886;9.388;2023-10-08T06:38:01;9.68;;;3.25;;
34481;SDS011;20720;48.886;9.388;2023-10-08T06:40:32;12.15;;;3.45;;
34481;SDS011;20720;48.886;9.388;2023-10-08T06:43:06;8.90;;;3.50;;
34481;SDS011;20720;48.886;9.388;2023-10-08T06:45:40;8.35;;;3.45;;
34481;SDS011;20720;48.886;9.388;2023-10-08T06:48:08;8.32;;;3.58;;
34481;SDS011;20720;48.886;9.388;2023-10-08T06:50:34;9.10;;;3.40;;
34481;SDS011;20720;48.886;9.388;2023-10-08T06:53:03;10.80;;;4.88;;
34481;SDS011;20720;48.886;9.388;2023-10-08T06:55:33;11.45;;;5.22;;
34481;SDS011;20720;48.886;9.388;2023-10-08T06:58:00;9.93;;;5.10;;
34481;SDS011;20720;48.886;9.388;2023-10-08T07:00:27;8.45;;;4.10;;
34481;SDS011;20720;48.886;9.388;2023-10-08T07:03:08;9.00;;;4.30;;
34481;SDS011;20720;48.886;9.388;2023-10-08T07:05:35;8.10;;;4.07;;
34481;SDS011;20720;48.886;9.388;2023-10-08T07:08:06;7.32;;;3.65;;
34481;SDS011;20720;48.886;9.388;2023-10-08T07:10:38;9.35;;;4.22;;
34481;SDS011;20720;48.886;9.388;2023-10-08T07:13:04;7.63;;;3.95;;
34481;SDS011;20720;48.886;9.388;2023-10-08T07:15:32;8.05;;;3.40;;
34481;SDS011;20720;48.886;9.388;2023-10-08T07:18:05;8.32;;;3.97;;
34481;SDS011;20720;48.886;9.388;2023-10-08T07:20:34;6.63;;;3.40;;
34481;SDS011;20720;48.886;9.388;2023-10-08T07:23:04;7.75;;;3.58;;
34481;SDS011;20720;48.886;9.388;2023-10-08T07:25:34;9.23;;;3.90;;
34481;SDS011;20720;48.886;9.388;2023-10-08T07:28:02;8.95;;;4.05;;
34481;SDS011;20720;48.886;9.388;2023-10-08T07:30:30;8.45;;;3.80;;
34481;SDS011;20720;48.886;9.388;2023-10-08T07:32:57;10.43;;;4.10;;
34481;SDS011;20720;48.886;9.388;2023-10-08T07:35:23;10.82;;;3.70;;
34481;SDS011;20720;48.886;9.388;2023-10-08T07:37:51;6.80;;;3.38;;
34481;SDS011;20720;48.886;9.388;2023-10-08T07:40:19;8.30;;;3.28;;
34481;SDS011;20720;48.886;9.388;2023-10-08T07:42:45;11.77;;;4.15;;
34481;SDS011;20720;48.886;9.388;2023-10-08T07:45:16;7.78;;;3.38;;
34481;SDS011;20720;48.886;9.388;2023-10-08T07:47:42;14.55;;;4.05;;
34481;SDS011;20720;48.886;9.388;2023-10-08T07:50:08;6.75;;;3.47;;
34481;SDS011;20720;48.886;9.388;2023-10-08T07:52:37;8.50;;;3.25;;
34481;SDS011;20720;48.886;9.388;2023-10-08T07:55:02;7.50;;;3.55;;
34481;SDS011;20720;48.886;9.388;2023-10-08T07:57:29;10.20;;;3.22;;
34481;SDS011;20720;48.886;9.388;2023-10-08T07:59:56;6.57;;;3.10;;
34481;SDS011;20720;48.886;9.388;2023-10-08T08:02:26;7.75;;;3.80;;
34481;SDS011;20720;48.886;9.388;2023-10-08T08:04:52;9.95;;;3.53;;
34481;SDS011;20720;48.886;9.388;2023-10-08T08:07:18;8.68;;;4.13;;
34481;SDS011;20720;48.886;9.388;2023-10-08T08:09:45;7.35;;;3.75;;
34481;SDS011;20720;48.886;9.388;2023-10-08T08:12:20;8.00;;;3.63;;
34481;SDS011;20720;48.886;9.388;2023-10-08T08:14:50;7.95;;;4.13;;
34481;SDS011;20720;48.886;9.388;2023-10-08T08:17:23;7.40;;;3.90;;
34481;SDS011;20720;48.886;9.388;2023-10-08T08:19:49;8.63;;;3.90;;
34481;SDS011;20720;48.886;9.388;2023-10-08T08:22:18;9.60;;;3.58;;
34481;SDS011;20720;48.886;9.388;2023-10-08T08:27:18;5.30;;;2.65;;
34481;SDS011;20720;48.886;9.388;2023-10-08T08:29:52;5.75;;;2.80;;
34481;SDS011;20720;48.886;9.388;2023-10-08T08:32:20;5.43;;;3.00;;
34481;SDS011;20720;48.886;9.388;2023-10-08T08:34:49;6.53;;;3.50;;
34481;SDS011;20720;48.886;9.388;2023-10-08T08:37:17;9.65;;;3.25;;
34481;SDS011;20720;48.886;9.388;2023-10-08T08:39:43;10.10;;;3.28;;
34481;SDS011;20720;48.886;9.388;2023-10-08T08:42:08;6.22;;;2.97;;
34481;SDS011;20720;48.886;9.388;2023-10-08T08:44:37;6.78;;;3.00;;
34481;SDS011;20720;48.886;9.388;2023-10-08T08:47:13;6.40;;;3.25;;
34481;SDS011;20720;48.886;9.388;2023-10-08T08:49:49;6.32;;;2.72;;
34481;SDS011;20720;48.886;9.388;2023-10-08T08:52:18;10.07;;;3.38;;
34481;SDS011;20720;48.886;9.388;2023-10-08T08:54:43;6.05;;;3.10;;
34481;SDS011;20720;48.886;9.388;2023-10-08T08:57:09;5.47;;;3.10;;
34481;SDS011;20720;48.886;9.388;2023-10-08T08:59:48;5.75;;;3.10;;
34481;SDS011;20720;48.886;9.388;2023-10-08T09:02:18;5.80;;;2.88;;
34481;SDS011;20720;48.886;9.388;2023-10-08T09:04:43;11.32;;;3.30;;
34481;SDS011;20720;48.886;9.388;2023-10-08T09:07:10;7.88;;;3.13;;
34481;SDS011;20720;48.886;9.388;2023-10-08T09:09:37;6.50;;;2.65;;
34481;SDS011;20720;48.886;9.388;2023-10-08T09:12:04;7.35;;;3.17;;
34481;SDS011;20720;48.886;9.388;2023-10-08T09:14:30;6.57;;;2.95;;
34481;SDS011;20720;48.886;9.388;2023-10-08T09:16:57;7.47;;;3.10;;
34481;SDS011;20720;48.886;9.388;2023-10-08T09:19:24;6.07;;;3.00;;
34481;SDS011;20720;48.886;9.388;2023-10-08T09:24:45;4.72;;;2.40;;
34481;SDS011;20720;48.886;9.388;2023-10-08T09:27:11;5.47;;;3.13;;
34481;SDS011;20720;48.886;9.388;2023-10-08T09:29:40;6.63;;;2.72;;
34481;SDS011;20720;48.886;9.388;2023-10-08T09:32:12;6.10;;;2.90;;
34481;SDS011;20720;48.886;9.388;2023-10-08T09:34:38;6.20;;;3.20;;
34481;SDS011;20720;48.886;9.388;2023-10-08T09:37:04;8.35;;;2.85;;
34481;SDS011;20720;48.886;9.388;2023-10-08T09:39:30;6.70;;;3.40;;
34481;SDS011;20720;48.886;9.388;2023-10-08T09:42:00;5.90;;;3.15;;
34481;SDS011;20720;48.886;9.388;2023-10-08T09:44:29;5.47;;;2.90;;
34481;SDS011;20720;48.886;9.388;2023-10-08T09:47:02;4.65;;;2.80;;
34481;SDS011;20720;48.886;9.388;2023-10-08T09:49:30;5.28;;;2.88;;
34481;SDS011;20720;48.886;9.388;2023-10-08T09:51:59;5.45;;;2.72;;
34481;SDS011;20720;48.886;9.388;2023-10-08T09:54:31;9.85;;;3.00;;
34481;SDS011;20720;48.886;9.388;2023-10-08T09:57:04;7.35;;;3.00;;
34481;SDS011;20720;48.886;9.388;2023-10-08T09:59:31;7.38;;;2.97;;
34481;SDS011;20720;48.886;9.388;2023-10-08T10:01:58;7.70;;;2.83;;
34481;SDS011;20720;48.886;9.388;2023-10-08T10:04:25;7.40;;;3.05;;
34481;SDS011;20720;48.886;9.388;2023-10-08T10:06:53;6.15;;;3.05;;
34481;SDS011;20720;48.886;9.388;2023-10-08T10:09:23;5.75;;;3.30;;
34481;SDS011;20720;48.886;9.388;2023-10-08T10:11:50;6.63;;;2.97;;
34481;SDS011;20720;48.886;9.388;2023-10-08T10:14:17;6.68;;;3.08;;
34481;SDS011;20720;48.886;9.388;2023-10-08T10:16:48;5.97;;;3.22;;
34481;SDS011;20720;48.886;9.388;2023-10-08T10:19:34;5.70;;;2.80;;
34481;SDS011;20720;48.886;9.388;2023-10-08T10:22:01;7.43;;;3.13;;
34481;SDS011;20720;48.886;9.388;2023-10-08T10:24:32;6.50;;;3.08;;
34481;SDS011;20720;48.886;9.388;2023-10-08T10:27:12;5.80;;;3.08;;
34481;SDS011;20720;48.886;9.388;2023-10-08T10:29:41;5.82;;;2.85;;
34481;SDS011;20720;48.886;9.388;2023-10-08T10:32:12;5.78;;;3.35;;
34481;SDS011;20720;48.886;9.388;2023-10-08T10:34:40;5.13;;;2.72;;
34481;SDS011;20720;48.886;9.388;2023-10-08T10:37:07;8.30;;;2.90;;
34481;SDS011;20720;48.886;9.388;2023-10-08T10:39:56;6.35;;;2.85;;
34481;SDS011;20720;48.886;9.388;2023-10-08T10:42:26;6.07;;;2.92;;
34481;SDS011;20720;48.886;9.388;2023-10-08T10:44:53;5.13;;;3.13;;
34481;SDS011;20720;48.886;9.388;2023-10-08T10:47:20;7.38;;;3.03;;
34481;SDS011;20720;48.886;9.388;2023-10-08T10:49:49;4.90;;;2.72;;
34481;SDS011;20720;48.886;9.388;2023-10-08T10:52:23;5.20;;;3.13;;
34481;SDS011;20720;48.886;9.388;2023-10-08T10:55:01;6.50;;;2.97;;
34481;SDS011;20720;48.886;9.388;2023-10-08T10:57:43;8.68;;;3.10;;
34481;SDS011;20720;48.886;9.388;2023-10-08T11:00:35;5.78;;;2.97;;
34481;SDS011;20720;48.886;9.388;2023-10-08T11:03:12;5.68;;;3.17;;
34481;SDS011;20720;48.886;9.388;2023-10-08T11:05:51;6.75;;;2.85;;
34481;SDS011;20720;48.886;9.388;2023-10-08T11:08:24;6.13;;;2.67;;
34481;SDS011;20720;48.886;9.388;2023-10-08T11:10:51;5.82;;;2.78;;
34481;SDS011;20720;48.886;9.388;2023-10-08T11:13:21;4.88;;;2.47;;
34481;SDS011;20720;48.886;9.388;2023-10-08T11:15:53;4.75;;;2.78;;
34481;SDS011;20720;48.886;9.388;2023-10-08T11:18:23;4.38;;;2.67;;
34481;SDS011;20720;48.886;9.388;2023-10-08T11:20:49;8.85;;;3.13;;
34481;SDS011;20720;48.886;9.388;2023-10-08T11:23:35;5.15;;;3.08;;
34481;SDS011;20720;48.886;9.388;2023-10-08T11:26:03;6.13;;;3.03;;
34481;SDS011;20720;48.886;9.388;2023-10-08T11:28:34;5.40;;;2.85;;
34481;SDS011;20720;48.886;9.388;2023-10-08T11:31:06;4.93;;;2.72;;
34481;SDS011;20720;48.886;9.388;2023-10-08T11:33:36;5.75;;;3.25;;
34481;SDS011;20720;48.886;9.388;2023-10-08T11:36:07;5.20;;;2.90;;
34481;SDS011;20720;48.886;9.388;2023-10-08T11:38:52;7.18;;;2.92;;
34481;SDS011;20720;48.886;9.388;2023-10-08T11:41:18;6.18;;;2.72;;
34481;SDS011;20720;48.886;9.388;2023-10-08T11:43:48;5.00;;;2.75;;
34481;SDS011;20720;48.886;9.388;2023-10-08T11:46:18;5.55;;;3.15;;
34481;SDS011;20720;48.886;9.388;2023-10-08T11:48:50;6.10;;;2.95;;
34481;SDS011;20720;48.886;9.388;2023-10-08T11:51:16;6.32;;;3.20;;
34481;SDS011;20720;48.886;9.388;2023-10-08T11:53:42;4.78;;;2.63;;
34481;SDS011;20720;48.886;9.388;2023-10-08T11:56:11;5.93;;;3.45;;
34481;SDS011;20720;48.886;9.388;2023-10-08T11:58:41;5.55;;;2.90;;
34481;SDS011;20720;48.886;9.388;2023-10-08T12:01:12;5.72;;;3.05;;
34481;SDS011;20720;48.886;9.388;2023-10-08T12:03:44;9.02;;;3.22;;
34481;SDS011;20720;48.886;9.388;2023-10-08T12:06:13;3.80;;;2.60;;
34481;SDS011;20720;48.886;9.388;2023-10-08T12:08:43;7.43;;;2.97;;
34481;SDS011;20720;48.886;9.388;2023-10-08T12:11:13;5.85;;;3.30;;
34481;SDS011;20720;48.886;9.388;2023-10-08T12:13:39;6.22;;;3.25;;
34481;SDS011;20720;48.886;9.388;2023-10-08T12:16:10;7.15;;;3.20;;
34481;SDS011;20720;48.886;9.388;2023-10-08T12:18:48;6.40;;;3.17;;
34481;SDS011;20720;48.886;9.388;2023-10-08T12:21:18;4.95;;;3.03;;
34481;SDS011;20720;48.886;9.388;2023-10-08T12:23:46;5.68;;;3.58;;
34481;SDS011;20720;48.886;9.388;2023-10-08T12:26:12;6.30;;;3.33;;
34481;SDS011;20720;48.886;9.388;2023-10-08T12:28:43;4.85;;;3.15;;
34481;SDS011;20720;48.886;9.388;2023-10-08T12:31:10;8.65;;;3.47;;
34481;SDS011;20720;48.886;9.388;2023-10-08T12:33:36;5.90;;;3.10;;
34481;SDS011;20720;48.886;9.388;2023-10-08T12:36:02;5.95;;;2.95;;
34481;SDS011;20720;48.886;9.388;2023-10-08T12:38:35;5.32;;;3.10;;
34481;SDS011;20720;48.886;9.388;2023-10-08T12:41:01;5.72;;;3.20;;
34481;SDS011;20720;48.886;9.388;2023-10-08T12:43:33;8.23;;;3.03;;
34481;SDS011;20720;48.886;9.388;2023-10-08T12:46:03;6.28;;;3.38;;
34481;SDS011;20720;48.886;9.388;2023-10-08T12:48:29;5.97;;;3.10;;
34481;SDS011;20720;48.886;9.388;2023-10-08T12:50:55;5.55;;;3.53;;
34481;SDS011;20720;48.886;9.388;2023-10-08T12:53:25;6.25;;;2.83;;
34481;SDS011;20720;48.886;9.388;2023-10-08T12:56:01;7.82;;;3.50;;
34481;SDS011;20720;48.886;9.388;2023-10-08T12:58:30;5.43;;;2.83;;
34481;SDS011;20720;48.886;9.388;2023-10-08T13:00:59;5.18;;;2.92;;
34481;SDS011;20720;48.886;9.388;2023-10-08T13:03:28;9.63;;;3.72;;
34481;SDS011;20720;48.886;9.388;2023-10-08T13:05:56;6.53;;;3.33;;
34481;SDS011;20720;48.886;9.388;2023-10-08T13:08:29;10.65;;;3.53;;
34481;SDS011;20720;48.886;9.388;2023-10-08T13:10:56;8.25;;;3.10;;
34481;SDS011;20720;48.886;9.388;2023-10-08T13:13:25;6.43;;;3.08;;
34481;SDS011;20720;48.886;9.388;2023-10-08T13:15:51;4.60;;;2.90;;
34481;SDS011;20720;48.886;9.388;2023-10-08T13:18:20;6.55;;;3.15;;
34481;SDS011;20720;48.886;9.388;2023-10-08T13:20:46;7.53;;;3.42;;
34481;SDS011;20720;48.886;9.388;2023-10-08T13:23:12;6.95;;;3.42;;
34481;SDS011;20720;48.886;9.388;2023-10-08T13:25:37;9.23;;;3.83;;
34481;SDS011;20720;48.886;9.388;2023-10-08T13:28:04;6.90;;;3.47;;
34481;SDS011;20720;48.886;9.388;2023-10-08T13:30:32;7.18;;;3.15;;
34481;SDS011;20720;48.886;9.388;2023-10-08T13:32:57;9.40;;;3.40;;
34481;SDS011;20720;48.886;9.388;2023-10-08T13:35:24;5.50;;;2.97;;
34481;SDS011;20720;48.886;9.388;2023-10-08T13:37:50;7.88;;;3.10;;
34481;SDS011;20720;48.886;9.388;2023-10-08T13:40:15;7.70;;;3.43;;
34481;SDS011;20720;48.886;9.388;2023-10-08T13:42:41;6.68;;;3.42;;
34481;SDS011;20720;48.886;9.388;2023-10-08T13:45:07;6.57;;;3.20;;
34481;SDS011;20720;48.886;9.388;2023-10-08T13:47:34;6.35;;;3.22;;
34481;SDS011;20720;48.886;9.388;2023-10-08T13:49:59;9.45;;;3.20;;
34481;SDS011;20720;48.886;9.388;2023-10-08T13:52:25;6.38;;;3.20;;
34481;SDS011;20720;48.886;9.388;2023-10-08T13:54:54;8.18;;;3.30;;
34481;SDS011;20720;48.886;9.388;2023-10-08T13:57:20;7.22;;;3.22;;
34481;SDS011;20720;48.886;9.388;2023-10-08T13:59:46;5.05;;;3.25;;
34481;SDS011;20720;48.886;9.388;2023-10-08T14:02:13;4.97;;;3.10;;
34481;SDS011;20720;48.886;9.388;2023-10-08T14:04:44;6.35;;;4.18;;
34481;SDS011;20720;48.886;9.388;2023-10-08T14:07:13;9.82;;;4.03;;
34481;SDS011;20720;48.886;9.388;2023-10-08T14:09:42;7.13;;;3.75;;
34481;SDS011;20720;48.886;9.388;2023-10-08T14:12:11;6.93;;;3.45;;
34481;SDS011;20720;48.886;9.388;2023-10-08T14:14:38;6.30;;;3.45;;
34481;SDS011;20720;48.886;9.388;2023-10-08T14:17:11;5.90;;;3.33;;
34481;SDS011;20720;48.886;9.388;2023-10-08T14:19:40;7.65;;;3.40;;
34481;SDS011;20720;48.886;9.388;2023-10-08T14:22:17;6.30;;;3.22;;
34481;SDS011;20720;48.886;9.388;2023-10-08T14:24:44;5.47;;;3.28;;
34481;SDS011;20720;48.886;9.388;2023-10-08T14:27:23;7.25;;;3.13;;
34481;SDS011;20720;48.886;9.388;2023-10-08T14:29:57;9.30;;;3.53;;
34481;SDS011;20720;48.886;9.388;2023-10-08T14:32:26;7.95;;;3.40;;
34481;SDS011;20720;48.886;9.388;2023-10-08T14:34:52;5.25;;;3.08;;
34481;SDS011;20720;48.886;9.388;2023-10-08T14:37:20;7.82;;;3.53;;
34481;SDS011;20720;48.886;9.388;2023-10-08T14:40:05;5.97;;;3.40;;
34481;SDS011;20720;48.886;9.388;2023-10-08T14:42:50;5.82;;;3.42;;
34481;SDS011;20720;48.886;9.388;2023-10-08T14:45:20;5.88;;;3.00;;
34481;SDS011;20720;48.886;9.388;2023-10-08T14:47:47;6.50;;;3.30;;
34481;SDS011;20720;48.886;9.388;2023-10-08T14:50:13;5.50;;;2.65;;
34481;SDS011;20720;48.886;9.388;2023-10-08T14:52:44;4.70;;;2.90;;
34481;SDS011;20720;48.886;9.388;2023-10-08T14:55:10;6.80;;;3.15;;
34481;SDS011;20720;48.886;9.388;2023-10-08T14:57:38;6.65;;;3.28;;
34481;SDS011;20720;48.886;9.388;2023-10-08T15:00:05;9.15;;;3.65;;
34481;SDS011;20720;48.886;9.388;2023-10-08T15:02:31;6.00;;;2.92;;
34481;SDS011;20720;48.886;9.388;2023-10-08T15:04:58;6.28;;;3.17;;
34481;SDS011;20720;48.886;9.388;2023-10-08T15:07:24;6.13;;;3.15;;
34481;SDS011;20720;48.886;9.388;2023-10-08T15:09:49;6.13;;;3.30;;
34481;SDS011;20720;48.886;9.388;2023-10-08T15:12:15;8.73;;;3.50;;
34481;SDS011;20720;48.886;9.388;2023-10-08T15:14:41;6.80;;;3.38;;
34481;SDS011;20720;48.886;9.388;2023-10-08T15:17:07;6.45;;;3.08;;
34481;SDS011;20720;48.886;9.388;2023-10-08T15:19:33;6.57;;;3.22;;